x

New Dungeness - 17 Nm Ne Of Port Angeles, Wa (46088) Wave Buoy

9:20pm - Sun 20th Apr 2014 All times are PDT. -7 hours from GMT.

  • Sig Wave height 0.7ft
  • Wind
    7mph, 9mph gusts
  • Sea Temp 47°f
  • Air Temp 49°f
  • Sea Pressure 1020.5mb
  • New Dungeness - 17 Nm Ne Of Port Angeles, Wa
  • New Dungeness - 17 Nm Ne Of Port Angeles, Wa

More Historic Weather Station data

Upgrade to MSW Pro to gain access to the past 30 days of data for over 8000 Wavebouys and Weather Stations around the globe.

Join Pro

Comparision Forecast

View Surf forecast
   
Sun 04/20 9:20pm 0.7ft  -  7 9 mph 1020.5mb 47f 49f
8:50pm 0.3ft  -  4
mph
1020.6mb 47f 48f
8:20pm 0.7ft  -  4
mph
1020.7mb 47f 48f
7:50pm 0.7ft  -  7 9 mph 1020.8mb 47f 48f
7:20pm 0.7ft  -  7 9 mph 1020.8mb 48f 48f
6:50pm 0.7ft  -  7
mph
1021.1mb 47f 48f
6:20pm 0.7ft  -  7 9 mph 1021.4mb 48f 49f
5:50pm 1ft 9s 9 11 mph 1021.5mb 48f 49f
5:20pm 1ft 9s 9 11 mph 1021.7mb 48f 50f
4:50pm 1ft 9s 7 9 mph 1022mb 48f 50f
4:20pm 1.3ft 11s 7 9 mph 1022.4mb 48f 50f
3:50pm 1.3ft 8s 4 7 mph 1022.6mb 48f 51f
3:20pm 1.3ft 10s 4 9 mph 1022.7mb 48f 49f
2:50pm 1.6ft 3s 4
mph
1022.9mb 48f 48f
2:20pm 1.6ft 3s 2 4 mph 1023.1mb 48f 48f
1:50pm 1.6ft 3s 2 4 mph 1023.6mb 48f 48f
1:20pm 1.6ft 3s 7 9 mph 1023.6mb 47f 49f
12:50pm 1.6ft 3s 7
mph
1023.4mb 47f 49f
12:20pm 1.6ft 3s 13 16 mph 1023.4mb 47f 50f
11:50am 1.6ft 3s 16 18 mph 1023.8mb 47f 49f
11:20am 1.6ft 3s 16 18 mph 1024.3mb 47f 49f
10:50am 1.6ft 3s 18 20 mph 1024.4mb 47f 48f
10:20am 1.3ft 3s 16 18 mph 1024.2mb 47f 48f
9:50am 1.3ft 3s 13 16 mph 1024.2mb 47f 47f
9:20am 1ft 3s 13 16 mph 1024.3mb 47f 47f
8:50am  -   -  11 13 mph 1024.2mb 47f 46f
8:20am 1ft 10s 9 11 mph 1024.1mb 47f 46f
7:50am 1.3ft 12s 9 11 mph 1024.1mb 47f 46f
7:20am 1ft 11s 9 11 mph 1023.7mb 47f 46f
6:50am 1ft 11s 9
mph
1023.8mb 47f 46f
6:20am 1ft 12s 9 11 mph 1023.4mb 47f 46f
5:50am 1ft 13s 11
mph
1023.3mb 47f 47f
5:20am 1ft 13s 11
mph
1023.3mb 47f 47f
4:50am  -   -  11 13 mph 1023.3mb 47f 47f
4:20am  -   -  11 13 mph 1023.2mb 47f 47f
3:50am  -   -  11
mph
1023.2mb 47f 47f
3:20am  -   -  11
mph
1023.1mb 47f 47f
2:50am 1ft 4s 11 13 mph 1022.6mb 47f 48f
2:20am 1ft 3s 13 16 mph 1022.2mb 47f 48f
1:50am 1ft 4s 9 11 mph 1022.2mb 47f 48f
1:20am 1ft 4s 4 7 mph 1021.8mb 47f 48f
12:50am 1ft 3s 9 11 mph 1021mb 47f 49f
12:20am 1.3ft 3s 13 16 mph 1020.3mb 47f 49f
Sat 04/19 11:50pm 1.3ft 3s 18 20 mph 1019.7mb 47f 49f
11:20pm 1.3ft 3s 18 22 mph 1019.4mb 47f 49f
10:50pm 1ft 3s 16 18 mph 1018.9mb 47f 49f
10:20pm 1ft 3s 13 16 mph 1018.6mb 47f 49f
9:50pm 1ft 3s 18 20 mph 1017.8mb 47f 49f
9:20pm 1.3ft 3s 11 16 mph 1017.4mb 47f 49f
8:50pm 1ft 2s 13 16 mph 1016.6mb 47f 49f
8:20pm 1ft 2s 13 16 mph 1015.9mb 47f 48f
7:50pm 0.7ft  -  16 18 mph 1015.1mb 47f 49f
7:20pm 0.7ft  -  16 18 mph 1014.4mb 47f 48f
6:50pm 0.7ft  -  18 20 mph 1014.1mb 47f 49f
6:20pm 1ft 4s 13 16 mph 1013.2mb 48f 49f
5:50pm 1ft 4s 9 11 mph 1013mb 48f 49f
5:20pm 1.3ft 4s 7 9 mph 1012.7mb 48f 48f
4:50pm 1.3ft 4s 9 11 mph 1012.2mb 48f 49f
4:20pm 1.3ft 4s 7
mph
1011mb 48f 49f
3:50pm 1.3ft 4s 9 11 mph 1010.5mb 47f 49f
3:20pm 1.6ft 4s 9 11 mph 1009.8mb 47f 49f
2:50pm 2ft 5s 9 11 mph 1009.5mb 47f 49f
2:20pm 1.6ft 3s 9 11 mph 1009.3mb 47f 49f
1:50pm 1.6ft 3s 7 9 mph 1008.7mb 47f 50f
1:20pm 1.3ft 3s 11 13 mph 1007.9mb 47f 49f
12:50pm 1.3ft 3s 9 13 mph 1007.8mb 47f 49f
12:20pm 1ft 3s 4 7 mph 1007.3mb 47f 48f
11:50am 1ft 3s 7 9 mph 1007.1mb 47f 48f
11:20am 0.7ft  -  7 9 mph 1007.4mb 47f 48f
10:50am 1ft 3s 9
mph
1007.4mb 47f 47f
10:20am 1.3ft 3s 7
mph
1008.1mb 47f 47f
9:50am 1.6ft 3s 11 16 mph 1007.3mb 47f 47f
9:20am 2ft 3s 16 18 mph 1007.2mb 47f 47f
8:50am 1.6ft 3s 18 22 mph 1006.8mb 47f 47f
8:20am 1.3ft 3s 22 25 mph 1006.4mb 47f 47f
7:50am 1ft 3s 18 20 mph 1007mb 47f 47f
7:20am 1ft 3s 11 16 mph 1007.7mb 47f 47f
6:50am 1ft 3s 16 18 mph 1007.4mb 47f 47f
6:20am 1ft 3s 11 13 mph 1008.2mb 47f 47f
5:50am 1ft 3s 9 11 mph 1008.6mb 47f 47f
5:20am 1.3ft 10s 11 13 mph 1008.3mb 47f 47f
4:50am 1ft 3s 11 13 mph 1008.6mb 47f 47f
4:20am 1ft 3s 11 13 mph 1008.8mb 47f 47f
3:50am 1ft 3s 13
mph
1009.2mb 47f 47f
3:20am 1ft 3s 13 16 mph 1009.3mb 47f 47f
2:50am 1ft 3s 13
mph
1009.8mb 47f 47f
2:20am 1ft 3s 9 11 mph 1010.6mb 47f 47f
1:50am 1ft 2s 13 16 mph 1010.5mb 47f 47f
1:20am 1ft 3s 11 13 mph 1011.3mb 47f 48f
12:50am 1.3ft 2s 13 16 mph 1011.5mb 47f 48f
12:20am 1ft 2s 16 18 mph 1011.9mb 47f 48f
Fri 04/18 11:50pm 0.7ft  -  11 13 mph 1012.4mb 47f 48f
11:20pm 1ft 2s 13 16 mph 1012.7mb 47f 48f
10:50pm 0.7ft  -  13 16 mph 1013.1mb 47f 49f
10:20pm 0.7ft  -  13
mph
1013.7mb 47f 49f
9:50pm 0.7ft  -  11
mph
1014.3mb 47f 49f
9:20pm 0.7ft  -  11
mph
1014.5mb 47f 49f
8:50pm 0.7ft  -  7
mph
1014.9mb 47f 48f
8:20pm 0.7ft  -  2
mph
1015.5mb 47f 47f
7:50pm 0.7ft  -  2
mph
1015.9mb 47f 47f
7:20pm 0.7ft  -  2 4 mph 1016.4mb 47f 48f
6:50pm 0.7ft  -  4 7 mph 1016.7mb 47f 49f
6:20pm 0.7ft  -  4
mph
1017.2mb 47f 49f
5:50pm 0.7ft  -  2
mph
1017.5mb 48f 51f
5:20pm 0.7ft  -  4
mph
1017.8mb 48f 50f
4:50pm 1ft 4s 4
mph
1018.1mb 48f 50f
4:20pm 1ft 4s 7 9 mph 1018.4mb 48f 49f
3:50pm 1.3ft 5s 9
mph
1018.5mb 48f 49f
3:20pm 1.6ft 4s 9
mph
1018.7mb 48f 49f
2:50pm 1.6ft 10s 9 11 mph 1019mb 48f 48f
2:20pm 1.6ft 4s 11 13 mph 1019.1mb 48f 49f
1:50pm 2ft 5s 9
mph
1019.1mb 47f 49f
1:20pm 2.5ft 5s 13 16 mph 1019mb 47f 50f
12:50pm 2.5ft 5s 11 16 mph 1019.2mb 47f 49f
12:20pm 2.5ft 6s 13 16 mph 1019.4mb 47f 48f
11:50am 2.5ft 6s 18 22 mph 1019mb 47f 48f
11:20am 2.5ft 5s 18 20 mph 1019mb 47f 48f
10:50am 3ft 6s 18 22 mph 1018.7mb 47f 47f
10:20am 3ft 6s 20 22 mph 1018.2mb 47f 47f
9:50am 3.5ft 6s 18 25 mph 1017.9mb 47f 47f
9:20am 3.5ft 5s 20 25 mph 1017.5mb 47f 47f
8:50am 3.5ft 5s 22 27 mph 1017.1mb 47f 47f
8:20am 3.5ft 5s 22 27 mph 1016.9mb 47f 47f
7:50am 3.5ft 5s 20 27 mph 1016.7mb 47f 47f
7:20am 3.5ft 5s 25 29 mph 1016.2mb 47f 47f
6:50am 3.5ft 4s 22 27 mph 1015.9mb 47f 47f
6:20am 3ft 4s 22 27 mph 1015.3mb 47f 47f
5:50am 3.5ft 4s 25 31 mph 1014.9mb 47f 47f
5:20am 3.5ft 5s 25 27 mph 1014.6mb 47f 47f
4:20am 3.5ft 5s 25 29 mph 1013.7mb 47f 47f
3:50am 3.5ft 5s 27 31 mph 1013.2mb 47f 47f
3:20am 4ft 5s 29 34 mph 1012.7mb 47f 47f
2:50am 4.5ft 5s 27 34 mph 1012.7mb 47f 47f
2:20am 5ft 5s 29 34 mph 1012.2mb 47f 47f
1:50am  -   -  31 40 mph 1011.6mb 47f 47f
1:20am 4.5ft 6s 29 36 mph 1011.2mb 47f 47f
12:50am 4ft 5s 29 38 mph 1010.9mb 47f 47f
12:20am 4ft 5s 27 34 mph 1010.7mb 47f 47f
Thu 04/17 11:50pm 4ft 5s 31 36 mph 1010.3mb 47f 47f
11:20pm 4ft 5s 27 31 mph 1010.3mb 47f 47f
10:50pm 4.5ft 5s 27 31 mph 1009.8mb 47f 47f
10:20pm 4.5ft 5s 29 38 mph 1009.2mb 47f 48f
9:50pm 4.5ft 5s 29 36 mph 1008.5mb 47f 48f
9:20pm 4ft 4s 31 38 mph 1007.6mb 47f 48f
8:50pm 4ft 4s 29 36 mph 1006.9mb 47f 48f
8:20pm 3ft 4s 31 40 mph 1006.2mb 47f 48f
7:50pm 3ft 3s 31 40 mph 1005.7mb 47f 48f
7:20pm 3ft 4s 27 31 mph 1005.5mb 48f 48f
6:50pm 2.5ft 3s 27 34 mph 1005.5mb 48f 47f
6:20pm 2ft 3s 34 40 mph 1005.1mb 48f 46f
5:50pm 0.3ft  -  22 27 mph 1005mb 48f 49f
5:20pm 0.7ft  -  7
mph
1004.7mb 48f 49f
4:50pm 0.7ft  -  7
mph
1004.7mb 49f 49f
4:20pm 0.7ft  -  4 7 mph 1004.9mb 48f 49f
3:50pm 0.7ft  -  7
mph
1005.3mb 49f 49f
3:20pm 1ft 9s 2
mph
1005.6mb 49f 50f
2:50pm 1ft 9s 2
mph
1005.8mb 49f 51f
2:20pm 1ft 10s 2
mph
1006.3mb 49f 51f
1:50pm 1ft 11s  -  2 mph 1006.6mb 48f 50f
1:20pm 1ft 11s 2
mph
1006.9mb 48f 49f
12:50pm 0.7ft  -  7
mph
1007.1mb 48f 49f
12:20pm 0.7ft  -  7
mph
1007.4mb 47f 49f
11:50am 0.7ft  -  7
mph
1007.7mb 47f 49f
11:20am 0.7ft  -  7 9 mph 1007.9mb 47f 49f
10:50am 0.3ft  -  7
mph
1008.2mb 47f 49f
10:20am 0.3ft  -  7
mph
1008.3mb 47f 49f
9:50am 0.3ft  -  4
mph
1008.7mb 47f 49f
9:20am 0.7ft  -  4 7 mph 1008.9mb 47f 49f
8:50am 0.7ft  -  7 9 mph 1009.1mb 47f 48f
8:20am 0.7ft  -  7 9 mph 1009.3mb 47f 48f
7:50am 0.3ft  -  7 9 mph 1009.4mb 47f 49f
7:20am 0.7ft  -  7
mph
1009.6mb 47f 48f
6:50am 0.7ft  -  7
mph
1009.7mb 47f 48f
6:20am 0.3ft  -  7 11 mph 1009.9mb 47f 49f
5:50am 0.7ft  -  9 11 mph 1009.9mb 47f 49f
5:20am 0.7ft  -  9 13 mph 1010.1mb 47f 49f